Time,TemperatureF,DewpointF,PressureIn,WindDirection,WindDirectionDegrees,WindSpeedMPH,WindSpeedGustMPH,Humidity,HourlyPrecipIn,Conditions,Clouds,dailyrainin,SoftwareType,DateUTC
2013-08-13 08:21:00,75.0,74.0,29.95,NW,315,0.0,-999.0,97,-99.99,,,-99.99,,2013-08-13 13:21:00,
2013-08-13 08:52:00,75.0,73.0,29.96,North,355,1.0,-999.0,94,-99.99,,,-99.99,,2013-08-13 13:52:00,
2013-08-13 09:22:00,76.0,73.0,29.98,NNW,342,0.0,-999.0,89,-99.99,,,-99.99,,2013-08-13 14:22:00,
2013-08-13 09:52:00,77.0,72.0,29.98,NNW,344,0.0,-999.0,85,-99.99,,,-99.99,,2013-08-13 14:52:00,
2013-08-13 10:11:00,77.0,72.0,29.98,NNW,345,0.0,-999.0,84,-99.99,,,-99.99,,2013-08-13 15:11:00,
2013-08-13 10:21:00,77.0,71.0,29.98,North,10,0.0,-999.0,83,-99.99,,,-99.99,,2013-08-13 15:21:00,
2013-08-13 10:54:00,78.0,72.0,30.00,North,11,0.0,-999.0,81,-99.99,,,-99.99,,2013-08-13 15:54:00,
2013-08-13 11:13:00,78.0,72.0,29.99,North,355,1.0,-999.0,81,-99.99,,,-99.99,,2013-08-13 16:13:00,
2013-08-13 11:23:00,78.0,71.0,29.99,NNW,340,0.0,-999.0,80,-99.99,,,-99.99,,2013-08-13 16:23:00,
2013-08-13 11:54:00,80.0,72.0,29.99,North,350,0.0,-999.0,77,-99.99,,,-99.99,,2013-08-13 16:54:00,
2013-08-13 12:16:00,80.0,72.0,29.99,NNW,341,0.0,-999.0,77,-99.99,,,-99.99,,2013-08-13 17:16:00,
2013-08-13 12:27:00,80.0,72.0,29.99,NNE,26,1.0,-999.0,76,-99.99,,,-99.99,,2013-08-13 17:27:00,
2013-08-13 12:46:00,-999.0,-99.9,29.98,North,9,1.0,-999.0,75,-99.99,,,-99.99,,2013-08-13 17:46:00,
2013-08-13 12:56:00,80.0,71.0,29.98,North,9,1.0,-999.0,75,-99.99,,,-99.99,,2013-08-13 17:56:00,
2013-08-13 13:15:00,80.0,72.0,29.98,NNW,348,0.0,-999.0,76,-99.99,,,-99.99,,2013-08-13 18:15:00,
2013-08-13 13:25:00,81.0,72.0,29.98,North,10,1.0,-999.0,74,-99.99,,,-99.99,,2013-08-13 18:25:00,
2013-08-13 13:56:00,81.0,72.0,29.98,North,355,1.0,-999.0,73,-99.99,,,-99.99,,2013-08-13 18:56:00,
2013-08-13 14:24:00,82.0,72.0,29.98,NNE,17,0.0,-999.0,71,-99.99,,,-99.99,,2013-08-13 19:24:00,
2013-08-13 14:55:00,83.0,72.0,29.96,NNW,331,0.0,-999.0,70,-99.99,,,-99.99,,2013-08-13 19:55:00,
2013-08-13 15:15:00,83.0,71.0,29.96,North,355,0.0,-999.0,68,-99.99,,,-99.99,,2013-08-13 20:15:00,
2013-08-13 15:22:00,83.0,70.0,29.95,NNE,26,1.0,-999.0,66,-99.99,,,-99.99,,2013-08-13 20:22:00,
2013-08-13 15:53:00,84.0,70.0,29.94,NNE,24,3.0,-999.0,63,-99.99,,,-99.99,,2013-08-13 20:53:00,
2013-08-13 16:11:00,84.0,70.0,29.93,NE,34,3.0,-999.0,63,-99.99,,,-99.99,,2013-08-13 21:11:00,
2013-08-13 16:24:00,84.0,70.0,29.93,NNW,337,3.0,-999.0,62,-99.99,,,-99.99,,2013-08-13 21:24:00,
2013-08-13 16:54:00,84.0,67.0,29.92,NE,53,5.0,-999.0,56,-99.99,,,-99.99,,2013-08-13 21:54:00,
2013-08-13 17:22:00,83.0,65.0,29.92,NNE,17,8.0,-999.0,55,-99.99,,,-99.99,,2013-08-13 22:22:00,
2013-08-13 17:50:00,83.0,66.0,29.93,North,5,8.0,-999.0,56,-99.99,,,-99.99,,2013-08-13 22:50:00,
2013-08-13 17:57:00,83.0,66.0,29.93,NNE,22,3.0,-999.0,57,-99.99,,,-99.99,,2013-08-13 22:57:00,
2013-08-13 18:26:00,83.0,66.0,29.93,NNW,348,3.0,-999.0,56,-99.99,,,-99.99,,2013-08-13 23:26:00,
2013-08-13 18:57:00,80.0,66.0,29.93,NNW,342,1.0,-999.0,63,-99.99,,,-99.99,,2013-08-13 23:57:00,
2013-08-13 19:11:00,80.0,68.0,29.92,North,11,0.0,-999.0,66,-99.99,,,-99.99,,2013-08-14 00:11:00,
2013-08-13 19:22:00,79.0,68.0,29.93,North,360,0.0,-999.0,68,-99.99,,,-99.99,,2013-08-14 00:22:00,
2013-08-13 19:42:00,79.0,68.0,29.93,North,5,0.0,-999.0,70,-99.99,,,-99.99,,2013-08-14 00:42:00,